Estación municipal de Susqueda - Veïnat del Coll (La Selva, )

Consulta los datos en tiempo real de la estación municipal de Susqueda - Veïnat del Coll





Hora UTC 11:30
Temperatura 13.8 ºC
Humedad 88.0 %
Presión 1013.2 hPa
Pluja 0.0 mm
Velocidad viento 5.5 km/h
Dirección viento E
Radiación solar 168.4 W/m²

Datos diarios 2026-05-04



Hora UTC (invierno +1h; verano +2h)
Temperatura (ºC) Humedad (%) Presión (hPa) Velocidad viento (km/h) Precipitación (mm) Radiación solar (W/m²)
Hora UTC Aire Humedad Presión Vel. Dir. Vel. Max Dir. Intent. máx 5 min. Rad. Sol.
00:05 9.4 98.8 1014.5 3.0 W 3.0 WSW 0.0 0.1
00:10 9.3 98.7 1014.5 3.9 WSW 8.8 W 0.0 0.1
00:15 9.2 98.7 1014.5 3.4 SW 10.2 SW 0.0 0.1
00:20 9.2 98.8 1014.5 5.6 S 11.6 SSE 0.0 0.1
00:25 9.3 99.0 1014.3 3.7 SSW 9.9 S 0.0 0.1
00:30 9.3 98.8 1014.3 1.8 WSW 4.9 WNW 0.0 0.1
00:35 9.2 98.7 1014.2 5.7 SSW 13.1 S 0.0 0.1
00:40 9.3 98.9 1014.2 5.4 S 13.4 SSE 0.0 0.1
00:45 9.2 98.7 1014.2 5.2 SSW 11.6 SSW 0.0 0.1
00:50 9.1 98.7 1014.2 5.8 SSW 11.3 SSE 0.0 0.1
00:55 9.0 98.8 1014.1 5.3 SSW 10.9 S 0.0 0.1
01:00 9.0 98.8 1014.1 6.2 SSW 13.4 SSW 0.0 0.1
01:05 9.0 98.8 1014.1 4.2 SW 9.9 WNW 0.0 0.1
01:10 9.0 98.9 1014.1 5.3 WSW 15.5 WNW 0.0 0.1
01:15 8.9 98.8 1014.0 4.4 WSW 14.8 W 0.0 0.1
01:20 8.9 98.9 1014.0 6.3 WSW 14.8 WNW 0.0 0.1
01:25 8.8 98.9 1013.9 5.8 SW 17.3 WSW 0.0 0.1
01:30 8.8 98.9 1013.9 6.4 SW 16.9 WSW 0.0 0.1
01:35 8.8 99.0 1013.9 4.6 SSW 15.9 SW 0.0 0.1
01:40 8.9 99.0 1013.9 4.6 SW 12.4 WSW 0.0 0.1
01:45 8.9 99.0 1013.9 5.8 SW 15.2 W 0.0 0.1
01:50 8.9 99.0 1013.9 6.1 SSW 13.1 SE 0.0 0.1
01:55 9.0 99.0 1013.9 5.0 SSW 14.8 SW 0.0 0.1
02:00 9.0 99.0 1013.9 4.4 SW 11.6 S 0.0 0.1
02:05 9.0 99.0 1013.8 6.2 WSW 18.0 WSW 0.0 0.1
02:10 9.0 99.0 1013.8 7.5 WSW 18.7 W 0.0 0.1
02:15 9.0 99.0 1013.7 6.0 W 18.0 WSW 0.0 0.1
02:20 9.0 99.0 1013.7 4.0 WSW 13.4 WNW 0.0 0.1
02:25 9.0 99.0 1013.7 4.9 WNW 11.3 SSW 0.0 0.1
02:30 9.0 99.0 1013.7 2.0 WNW 5.6 SW 0.0 0.1
02:35 9.0 99.0 1013.7 3.3 SW 12.7 S 0.0 0.1
02:40 8.9 99.0 1013.7 4.3 SW 10.6 SSW 0.0 0.1
02:45 9.0 99.0 1013.8 3.2 SW 10.6 WNW 0.0 0.1
02:50 9.0 99.1 1013.8 2.3 SSW 9.2 WNW 0.0 0.1
02:55 9.0 99.1 1013.8 2.8 SSE 8.1 SE 0.0 0.1
03:00 9.0 99.1 1013.8 4.0 S 10.6 SSE 0.0 0.1
03:05 9.1 99.1 1013.7 3.3 SSE 12.0 S 0.0 0.1
03:10 9.1 99.0 1013.7 1.7 W 7.4 NNW 0.0 0.1
03:15 9.1 98.9 1013.8 4.6 SW 10.9 S 0.0 0.1
03:20 9.1 98.9 1013.8 5.1 S 10.9 S 0.0 0.1
03:25 9.2 99.0 1013.7 7.0 S 13.1 S 0.0 0.1
03:30 9.3 99.0 1013.7 7.0 S 13.8 S 0.0 0.1
03:35 9.3 98.9 1013.8 7.6 S 18.7 SSW 0.0 0.1
03:40 9.3 98.8 1013.8 7.5 S 14.5 SSE 0.0 0.1
03:45 9.3 98.8 1013.7 8.9 S 15.9 S 0.0 0.1
03:50 9.5 98.9 1013.7 10.6 S 19.1 S 0.0 0.1
03:55 10.0 99.0 1013.5 11.2 S 19.4 SSW 0.0 0.1
04:00 10.3 98.2 1013.5 8.6 SSW 16.6 SSW 0.0 0.1
04:05 10.3 96.6 1013.5 7.4 SSW 13.4 SW 0.0 0.1
04:10 9.8 95.9 1013.5 6.9 SW 15.5 SSW 0.0 0.1
04:15 9.5 96.4 1013.5 7.1 SW 14.1 SSW 0.0 0.1
04:20 9.4 96.7 1013.5 7.5 SSW 14.5 SW 0.0 0.1
04:25 9.5 96.8 1013.4 5.1 SSW 13.1 S 0.0 0.1
04:30 9.5 96.3 1013.4 7.1 SSW 16.6 S 0.0 0.4
04:35 9.6 96.2 1013.3 5.9 SSW 12.7 SW 0.0 0.9
04:40 9.5 95.6 1013.3 7.2 SSW 13.8 S 0.0 1.8
04:45 9.4 95.6 1013.3 4.8 SSW 15.5 WSW 0.0 3.3
04:50 9.2 95.6 1013.3 5.9 SW 15.5 SSW 0.0 5.4
04:55 9.1 95.6 1013.2 4.7 SSW 12.7 SSW 0.0 7.0
05:00 9.0 95.7 1013.2 6.6 SSW 14.5 S 0.0 9.0
05:05 9.0 95.8 1013.2 4.9 SSW 11.3 WSW 0.0 10.5
05:10 9.0 96.0 1013.2 4.8 SW 15.9 S 0.0 12.6
05:15 9.0 96.1 1013.2 4.0 SW 13.8 WSW 0.0 16.3
05:20 9.0 96.2 1013.2 6.8 SW 16.6 SSW 0.0 17.8
05:25 9.0 96.4 1013.1 7.3 SW 19.1 SSW 0.0 26.0
05:30 9.0 96.7 1013.1 5.8 WSW 16.2 SW 0.0 33.3
05:35 9.0 97.0 1013.1 5.8 WSW 18.0 SW 0.0 59.6
05:40 9.1 97.3 1013.1 5.2 WSW 18.7 SW 0.0 91.1
05:45 9.1 97.4 1013.1 8.0 W 16.6 SW 0.0 67.8
05:50 9.2 97.7 1013.1 7.3 W 16.9 S 0.0 191.6
05:55 9.4 98.1 1013.1 6.0 WSW 18.4 WNW 0.0 236.7
06:00 9.6 97.8 1013.1 6.8 WSW 18.4 W 0.0 237.5
06:05 9.7 97.6 1013.1 7.6 WSW 23.3 W 0.0 238.9
06:10 9.7 96.8 1013.1 7.2 WSW 21.9 SW 0.0 156.8
06:15 9.6 96.6 1013.1 8.4 WSW 20.5 W 0.0 276.9
06:20 9.7 96.7 1013.1 8.0 WSW 22.6 WSW 0.0 294.2
06:25 9.9 96.1 1013.1 8.2 WSW 25.8 WSW 0.0 316.8
06:30 10.1 95.3 1013.1 8.7 WSW 25.1 S 0.0 374.9
06:35 10.1 94.3 1013.1 8.0 W 20.8 W 0.0 359.4
06:40 10.2 93.8 1013.1 9.2 WSW 30.0 W 0.0 356.2
06:45 10.2 93.3 1013.0 8.2 WSW 23.6 W 0.0 379.7
06:50 10.3 92.9 1013.0 8.8 WSW 30.3 WSW 0.0 487.1
06:55 10.4 92.3 1012.9 9.7 W 24.3 W 0.0 456.9
07:00 10.5 92.1 1012.9 8.3 W 22.9 WSW 0.0 450.2
07:05 10.6 91.7 1012.9 12.3 WSW 30.3 WNW 0.0 517.4
07:10 10.6 92.0 1012.9 10.4 W 30.7 W 0.0 477.6
07:15 10.7 91.5 1013.1 9.8 W 34.6 W 0.0 425.2
07:20 10.5 91.3 1013.1 8.8 WSW 22.2 WNW 0.0 172.2
07:25 10.3 92.5 1013.2 8.8 W 28.6 W 0.0 418.0
07:30 10.7 91.2 1013.2 9.0 WSW 26.5 W 0.0 492.7
07:35 11.0 89.0 1013.2 9.0 W 21.2 SSW 0.0 443.9
07:40 11.1 87.6 1013.2 8.9 W 27.9 W 0.0 451.6
07:45 11.5 85.6 1013.1 7.9 W 20.5 SW 0.0 543.6
07:50 11.7 85.4 1013.1 8.8 W 20.1 NNW 0.0 559.6
07:55 12.1 85.5 1013.1 6.4 WNW 15.2 W 0.0 566.2
08:00 12.4 85.7 1013.1 4.0 WNW 10.2 NW 0.0 596.5
08:05 12.5 84.7 1013.2 6.6 W 19.1 W 0.0 603.5
08:10 12.6 84.3 1013.2 4.5 WSW 15.2 W 0.0 614.7
08:15 12.9 81.9 1013.2 6.2 WSW 19.1 WNW 0.0 616.6
08:20 13.1 81.9 1013.2 4.4 W 12.4 W 0.0 688.6
08:25 13.7 78.9 1013.2 3.9 SW 10.9 S 0.0 623.2
08:30 13.6 79.2 1013.2 3.3 W 10.9 SW 0.0 485.4
08:35 14.0 79.3 1013.3 3.4 SE 12.0 W 0.0 803.0
08:40 14.8 75.4 1013.3 2.4 SW 7.4 WNW 0.0 640.7
08:45 14.5 74.0 1013.3 3.5 WSW 12.0 WSW 0.0 546.6
08:50 14.2 76.0 1013.3 3.4 S 12.0 S 0.0 332.0
08:55 13.7 78.1 1013.3 3.3 WSW 12.0 W 0.0 437.8
09:00 13.9 78.3 1013.3 3.8 W 8.8 WNW 0.0 481.9
09:05 13.7 78.7 1013.4 3.5 W 12.0 W 0.0 472.8
09:10 13.8 78.7 1013.4 3.9 W 13.8 WNW 0.0 502.0
09:15 13.8 78.6 1013.3 3.1 WSW 13.1 W 0.0 413.0
09:20 13.7 79.4 1013.3 1.9 WSW 7.8 SSW 0.0 350.8
09:25 13.9 78.8 1013.4 3.3 SW 9.5 SSW 0.0 353.1
09:30 14.0 77.6 1013.4 3.5 SW 12.4 S 0.0 310.0
09:35 13.8 78.2 1013.5 5.9 SSW 16.9 S 0.0 411.6
09:40 13.9 78.7 1013.5 3.8 SSW 16.2 SW 0.0 470.9
09:45 14.3 76.1 1013.6 3.6 SW 9.9 WSW 0.0 384.1
09:50 14.2 75.5 1013.6 3.7 SSW 11.3 NW 0.0 434.7
09:55 14.6 77.0 1013.6 4.8 NW 14.1 W 0.0 718.7
10:00 15.0 74.8 1013.6 3.9 NW 11.3 W 0.0 779.5
10:05 15.4 73.2 1013.6 2.7 NW 10.9 NW 0.0 660.9
10:10 15.2 72.5 1013.6 4.7 WNW 10.9 NW 0.0 750.6
10:15 15.0 74.6 1013.6 2.8 NNW 7.4 NNW 0.0 681.4
10:20 15.5 71.7 1013.6 6.2 NW 14.8 WNW 0.0 537.1
10:25 15.3 73.1 1013.5 3.0 WSW 9.5 WSW 0.0 437.1
10:30 15.2 73.5 1013.5 3.8 W 10.2 NW 0.0 423.2
10:35 15.2 74.6 1013.5 3.3 W 10.2 SSW 0.0 422.7
10:40 15.3 74.3 1013.5 2.4 WSW 10.2 NW 0.0 380.6
10:45 15.1 74.7 1013.5 2.2 SW 7.4 SSW 0.0 397.3
10:50 15.2 74.6 1013.5 2.1 NNW 7.4 NNW 0.0 432.5
10:55 15.1 74.0 1013.6 2.1 NW 5.6 NNW 0.0 303.6
11:00 14.7 74.7 1013.6 0.9 ENE 2.5 E 0.0 221.1
11:05 14.5 75.3 1013.5 0.5 NE 2.5 NNE 0.0 183.2
11:10 14.6 77.1 1013.5 3.8 ENE 9.2 ENE 0.0 133.2
11:15 14.5 79.0 1013.4 6.5 E 17.3 ENE 0.0 102.6
11:20 14.1 84.2 1013.4 5.6 E 16.2 ENE 0.0 94.1
11:25 13.9 86.4 1013.2 6.4 E 11.6 E 0.0 123.3
11:30 13.8 88.0 1013.2 5.5 E 12.4 E 0.0 168.4
Máxima 15.5 99.1 1014.5 12.3 WSW 34.6 W 0.0 803.0
Mínima 8.8 71.7 1012.9
Total 0.0